Time;durP1;ratioP1;P1;durP2;ratioP2;P2;SDS_P1;SDS_P2;PMS_P1;PMS_P2;Temp;Humidity;BMP_temperature;BMP_pressure;BME280_temperature;BME280_humidity;BME280_pressure;Samples;Min_cycle;Max_cycle;Signal;HPM_P1;HPM_P2
2023/11/30 00:01:24;;;;;;;27.27;16.48;;;2.30;99.90;;;2.72;74.64;99243.34;5026415;28;20048;-83
2023/11/30 00:03:51;;;;;;;27.98;17.83;;;2.30;99.90;;;2.70;74.28;99247.97;5011781;28;20050;-83
2023/11/30 00:06:18;;;;;;;29.88;18.17;;;2.30;99.90;;;2.68;74.50;99250.78;5020299;28;20049;-83
2023/11/30 00:08:49;;;;;;;29.02;17.75;;;2.30;99.90;;;2.66;74.81;99244.91;5024371;28;20073;-83
2023/11/30 00:11:17;;;;;;;33.33;17.45;;;2.30;99.90;;;2.66;74.82;99244.09;4989848;28;20046;-84
2023/11/30 00:13:44;;;;;;;30.25;17.85;;;2.30;99.90;;;2.65;74.66;99240.66;5017486;28;20073;-83
2023/11/30 00:16:12;;;;;;;29.35;17.27;;;2.30;99.90;;;2.66;74.97;99246.72;4972467;28;20046;-83
2023/11/30 00:18:40;;;;;;;27.55;16.85;;;2.30;99.90;;;2.68;74.79;99239.44;4989497;28;20461;-83
2023/11/30 00:21:08;;;;;;;28.65;17.48;;;2.30;99.90;;;2.70;74.91;99237.47;4990998;28;20062;-83
2023/11/30 00:23:35;;;;;;;27.92;17.73;;;2.40;99.90;;;2.73;74.97;99242.31;4974866;28;20054;-83
2023/11/30 00:26:05;;;;;;;26.77;17.17;;;2.40;99.90;;;2.71;75.09;99245.16;5020219;28;20636;-83
2023/11/30 00:28:33;;;;;;;30.13;17.83;;;2.40;99.90;;;2.70;74.89;99232.19;5017323;28;20050;-83
2023/11/30 00:31:01;;;;;;;30.33;17.17;;;2.50;99.90;;;2.71;74.68;99237.25;4989981;28;20042;-83
2023/11/30 00:33:28;;;;;;;30.48;18.15;;;2.40;99.90;;;2.71;74.84;99239.88;4987934;28;20050;-83
2023/11/30 00:35:56;;;;;;;29.02;16.95;;;2.40;99.90;;;2.71;75.06;99241.72;4991841;28;20061;-83
2023/11/30 00:38:24;;;;;;;31.90;17.50;;;2.40;99.90;;;2.72;75.05;99238.06;5014098;28;20104;-83
2023/11/30 00:40:52;;;;;;;29.38;17.67;;;2.40;99.90;;;2.68;74.61;99236.81;4990600;28;20046;-83
2023/11/30 00:43:21;;;;;;;31.30;18.05;;;2.40;99.90;;;2.67;74.94;99225.47;5002091;28;20517;-83
2023/11/30 00:45:48;;;;;;;28.95;17.15;;;2.30;99.90;;;2.67;74.93;99229.94;4997062;28;20053;-83
2023/11/30 00:48:15;;;;;;;27.77;17.13;;;2.30;99.90;;;2.65;75.25;99227.50;4995404;28;20050;-83
2023/11/30 00:50:44;;;;;;;27.48;17.02;;;2.30;99.90;;;2.66;74.75;99231.75;5017936;28;20497;-83
2023/11/30 00:53:12;;;;;;;27.52;17.00;;;2.30;99.90;;;2.64;74.89;99222.44;5008352;28;20042;-84
2023/11/30 00:55:39;;;;;;;30.42;17.83;;;2.30;99.90;;;2.66;74.95;99217.78;5008859;28;20049;-83
2023/11/30 00:58:07;;;;;;;30.73;17.90;;;2.30;99.90;;;2.66;74.90;99207.25;5009122;28;20050;-83
2023/11/30 01:00:36;;;;;;;27.75;17.27;;;2.30;99.90;;;2.64;74.67;99206.63;4994078;28;20078;-83
2023/11/30 01:03:04;;;;;;;30.73;19.00;;;2.30;99.90;;;2.63;74.73;99215.50;4993376;28;20038;-83
2023/11/30 01:05:32;;;;;;;33.40;19.02;;;2.30;99.90;;;2.65;75.05;99214.34;5008550;28;20125;-83
2023/11/30 01:08:00;;;;;;;33.03;19.48;;;2.30;99.90;;;2.65;74.83;99203.00;4999190;28;20505;-83
2023/11/30 01:10:27;;;;;;;31.45;18.80;;;2.30;99.90;;;2.64;75.02;99217.16;5002482;28;20042;-83
2023/11/30 01:12:56;;;;;;;31.15;18.90;;;2.30;99.90;;;2.64;75.17;99217.16;4997635;28;20038;-83
2023/11/30 01:15:24;;;;;;;28.25;17.25;;;2.30;99.90;;;2.65;75.24;99208.25;5009206;28;20050;-83
2023/11/30 01:17:53;;;;;;;33.15;18.73;;;2.30;99.90;;;2.64;74.66;99204.81;4994049;28;20054;-83
2023/11/30 01:20:20;;;;;;;31.65;19.40;;;2.30;99.90;;;2.61;75.05;99213.09;5008555;28;20046;-83
2023/11/30 01:22:48;;;;;;;32.58;18.98;;;2.30;99.90;;;2.61;74.88;99209.66;5009990;28;20120;-83
2023/11/30 01:25:17;;;;;;;31.70;18.90;;;2.20;99.90;;;2.55;75.14;99209.41;5028017;28;20046;-83
2023/11/30 01:27:45;;;;;;;34.35;18.77;;;2.20;99.90;;;2.53;74.98;99205.31;5009362;28;20058;-83
2023/11/30 01:30:14;;;;;;;31.85;18.38;;;2.20;99.90;;;2.50;75.44;99213.63;4999926;28;20057;-83
2023/11/30 01:32:41;;;;;;;33.13;19.08;;;2.20;99.90;;;2.49;75.43;99212.81;5005742;28;20419;-83
2023/11/30 01:35:11;;;;;;;31.98;18.40;;;2.20;99.90;;;2.47;75.15;99201.63;4992722;28;20458;-83
2023/11/30 01:37:39;;;;;;;30.48;17.98;;;2.10;99.90;;;2.46;75.04;99205.28;4992342;28;20062;-83
2023/11/30 01:40:10;;;;;;;36.00;19.13;;;2.10;99.90;;;2.46;75.43;99210.53;5009413;28;20113;-83
2023/11/30 01:42:37;;;;;;;;;;;2.10;99.90;;;2.46;75.25;99197.38;5009641;28;20057;-83
2023/11/30 01:45:06;;;;;;;31.90;17.15;;;2.10;99.90;;;2.46;75.14;99207.09;5009602;28;19927;-83
2023/11/30 01:47:34;;;;;;;29.25;17.30;;;2.10;99.90;;;2.45;74.83;99216.00;5008262;28;20405;-83
2023/11/30 01:50:03;;;;;;;28.33;17.13;;;2.30;99.90;;;2.47;75.08;99211.34;5009160;28;20096;-83
2023/11/30 01:52:32;;;;;;;30.15;17.23;;;2.10;99.90;;;2.45;74.63;99208.91;5009658;28;20034;-83
2023/11/30 01:55:03;;;;;;;31.35;17.58;;;2.10;99.90;;;2.43;74.59;99202.19;5027430;28;20046;-83
2023/11/30 01:57:31;;;;;;;31.90;17.45;;;2.10;99.90;;;2.39;74.73;99196.53;5009539;28;20046;-83
2023/11/30 01:59:59;;;;;;;30.13;17.23;;;2.10;99.90;;;2.39;74.55;99193.91;5009723;28;20072;-83
2023/11/30 02:02:28;;;;;;;36.83;18.45;;;2.10;99.90;;;2.39;74.45;99195.69;4993044;28;20105;-83
2023/11/30 02:04:56;;;;;;;29.08;17.65;;;2.10;99.90;;;2.36;74.37;99186.38;4990000;28;20066;-83
2023/11/30 02:07:23;;;;;;;29.20;17.70;;;2.00;99.90;;;2.35;74.71;99186.56;4973780;28;20497;-83
2023/11/30 02:09:53;;;;;;;30.30;17.35;;;2.00;99.90;;;2.34;74.21;99177.84;5006391;28;20045;-83
2023/11/30 02:12:20;;;;;;;26.70;16.30;;;2.00;99.90;;;2.35;74.23;99182.13;5010082;28;20065;-83
2023/11/30 02:14:48;;;;;;;26.30;16.15;;;2.00;99.90;;;2.35;74.00;99176.84;5008312;28;20072;-83
2023/11/30 02:17:16;;;;;;;30.38;16.83;;;1.90;99.90;;;2.34;73.71;99172.56;5026413;28;20108;-83
2023/11/30 02:19:43;;;;;;;26.98;15.90;;;2.00;99.90;;;2.30;73.63;99174.00;5009886;28;20042;-83
2023/11/30 02:22:12;;;;;;;28.80;16.77;;;1.90;99.90;;;2.28;73.98;99174.16;5027305;28;20452;-83
2023/11/30 02:24:39;;;;;;;28.75;17.00;;;1.90;99.90;;;2.29;74.06;99169.69;4994092;28;20049;-83
2023/11/30 02:27:07;;;;;;;28.52;16.85;;;2.00;99.90;;;2.30;73.72;99174.78;5010485;28;20065;-83
2023/11/30 02:29:34;;;;;;;27.20;16.33;;;1.90;99.90;;;2.32;73.47;99169.34;5010770;28;20098;-83
2023/11/30 02:32:02;;;;;;;27.00;15.98;;;1.90;99.90;;;2.35;73.39;99171.59;5010915;28;20041;-83
2023/11/30 02:34:29;;;;;;;26.73;15.98;;;2.00;99.90;;;2.36;73.72;99154.81;5011140;28;20054;-83
2023/11/30 02:36:57;;;;;;;26.50;16.05;;;2.00;99.90;;;2.33;73.59;99150.72;5028815;28;20042;-83
2023/11/30 02:39:26;;;;;;;29.48;16.98;;;1.90;99.90;;;2.32;73.59;99159.63;4978071;28;20042;-83
2023/11/30 02:41:53;;;;;;;27.35;16.52;;;1.90;99.90;;;2.28;73.32;99163.63;5011680;28;20050;-83
2023/11/30 02:44:21;;;;;;;33.13;18.10;;;1.90;99.90;;;2.28;73.32;99165.44;5029030;28;20060;-83
2023/11/30 02:46:49;;;;;;;31.25;18.10;;;1.90;99.90;;;2.30;73.75;99158.19;5011821;28;20046;-83
2023/11/30 02:49:16;;;;;;;32.40;18.65;;;1.90;99.90;;;2.28;73.38;99161.00;5014590;28;20046;-83
2023/11/30 02:51:44;;;;;;;29.70;17.73;;;1.90;99.90;;;2.25;73.30;99157.97;4999139;28;20045;-83
2023/11/30 02:54:13;;;;;;;29.50;17.10;;;1.90;99.90;;;2.24;73.61;99156.31;5016371;28;20049;-83
2023/11/30 02:56:42;;;;;;;26.25;16.63;;;1.80;99.90;;;2.27;73.73;99158.56;4999302;28;20046;-83
2023/11/30 02:59:10;;;;;;;27.80;16.67;;;1.90;99.90;;;2.29;73.64;99153.91;5015345;28;20054;-83
2023/11/30 03:01:45;;;;;;;28.80;16.42;;;1.90;99.90;;;2.29;73.85;99159.19;5015839;28;20092;-83
2023/11/30 03:04:12;;;;;;;27.63;16.48;;;1.90;99.90;;;2.29;73.63;99154.75;5032399;28;20045;-83
2023/11/30 03:06:41;;;;;;;28.48;16.33;;;1.90;99.90;;;2.27;73.59;99151.50;5015994;28;20021;-83
2023/11/30 03:09:10;;;;;;;27.15;15.70;;;1.90;99.90;;;2.26;73.48;99154.31;4998793;28;20046;-83
2023/11/30 03:11:41;;;;;;;29.20;16.65;;;1.90;99.90;;;2.24;73.93;99143.16;4994539;28;20053;-83
2023/11/30 03:14:09;;;;;;;30.75;16.90;;;1.90;99.90;;;2.22;73.63;99150.44;5010833;28;20050;-83
2023/11/30 03:16:37;;;;;;;26.77;15.57;;;1.80;99.90;;;2.22;73.66;99142.56;5010600;28;20050;-83
2023/11/30 03:19:05;;;;;;;27.25;16.23;;;1.80;99.90;;;2.22;73.88;99148.63;4994097;28;20048;-83
2023/11/30 03:21:33;;;;;;;28.83;17.05;;;1.80;99.90;;;2.21;73.44;99152.25;5010253;28;20038;-83
2023/11/30 03:24:00;;;;;;;26.73;15.45;;;1.80;99.90;;;2.22;73.71;99150.44;4976773;28;20047;-83
2023/11/30 03:26:28;;;;;;;30.50;16.40;;;1.80;99.90;;;2.24;73.27;99143.97;5004203;28;20056;-82
2023/11/30 03:28:57;;;;;;;28.17;16.17;;;1.90;99.90;;;2.25;73.36;99155.31;4976759;28;20046;-83
2023/11/30 03:31:27;;;;;;;31.20;17.38;;;1.80;99.90;;;2.27;73.21;99155.94;4993577;28;20046;-83
2023/11/30 03:33:54;;;;;;;27.80;16.95;;;1.90;99.90;;;2.28;73.60;99145.22;4988872;28;20042;-82
2023/11/30 03:36:22;;;;;;;28.55;16.10;;;1.90;99.90;;;2.27;73.60;99138.34;5005213;28;20046;-83
2023/11/30 03:38:53;;;;;;;28.40;16.75;;;1.90;99.90;;;2.25;73.24;99140.34;4997877;28;20077;-83
2023/11/30 03:41:21;;;;;;;28.35;16.20;;;1.80;99.90;;;2.21;73.63;99136.47;4991502;28;20077;-83
2023/11/30 03:43:49;;;;;;;27.48;16.00;;;1.80;99.90;;;2.20;73.35;99137.50;4998140;28;20047;-83
2023/11/30 03:46:21;;;;;;;29.90;16.70;;;1.80;99.90;;;2.17;73.74;99137.03;5003534;28;20054;-83
2023/11/30 03:48:48;;;;;;;27.10;15.75;;;1.80;99.90;;;2.14;73.77;99143.47;4992985;28;20046;-83
2023/11/30 03:51:15;;;;;;;28.52;16.77;;;1.80;99.90;;;2.13;73.23;99138.41;5009508;28;20092;-83
2023/11/30 03:53:44;;;;;;;28.55;17.13;;;1.80;99.90;;;2.13;73.54;99141.88;5009386;28;20042;-83
2023/11/30 03:56:12;;;;;;;28.55;16.98;;;2.00;99.90;;;2.14;73.77;99142.66;5027174;28;20100;-83
2023/11/30 03:58:40;;;;;;;28.80;15.75;;;1.80;99.90;;;2.14;73.82;99142.66;4992037;28;20068;-83
2023/11/30 04:01:08;;;;;;;28.73;16.20;;;1.80;99.90;;;2.12;73.77;99144.69;5007408;28;20042;-83
2023/11/30 04:03:37;;;;;;;27.65;15.73;;;1.80;99.90;;;2.10;73.48;99142.25;5016928;28;20043;-83
2023/11/30 04:06:05;;;;;;;28.55;16.33;;;1.70;99.90;;;2.10;73.40;99144.06;4982720;28;20057;-83
2023/11/30 04:08:35;;;;;;;29.70;16.80;;;1.80;99.90;;;2.13;74.12;99141.88;5026839;28;20057;-83
2023/11/30 04:11:02;;;;;;;26.15;15.45;;;1.80;99.90;;;2.14;73.59;99142.66;5027325;28;20046;-83
2023/11/30 04:13:30;;;;;;;28.58;16.27;;;1.80;99.90;;;2.14;73.94;99142.66;5008233;28;20092;-83
2023/11/30 04:15:58;;;;;;;29.42;16.65;;;1.80;99.90;;;2.15;73.90;99136.41;5007802;28;20050;-83
2023/11/30 04:18:26;;;;;;;29.10;16.10;;;1.80;99.90;;;2.16;73.75;99141.50;4991393;28;20069;-83
2023/11/30 04:20:56;;;;;;;29.40;17.50;;;1.80;99.90;;;2.19;74.16;99137.66;4992366;28;20458;-83
2023/11/30 04:23:23;;;;;;;29.42;16.70;;;1.80;99.90;;;2.22;73.97;99134.66;4975687;28;20057;-83
2023/11/30 04:25:52;;;;;;;32.92;16.63;;;1.80;99.90;;;2.23;73.83;99138.91;5008184;28;20042;-83
2023/11/30 04:28:21;;;;;;;27.48;16.35;;;1.90;99.90;;;2.22;73.91;99135.47;5008267;28;20103;-83
2023/11/30 04:30:48;;;;;;;32.55;17.92;;;1.80;99.90;;;2.22;74.06;99132.84;5008285;28;20108;-83
2023/11/30 04:33:17;;;;;;;29.48;17.00;;;1.90;99.90;;;2.21;74.09;99136.47;5008022;28;20505;-83
2023/11/30 04:35:45;;;;;;;28.27;15.45;;;1.80;99.90;;;2.17;73.97;99131.78;4992199;28;20045;-83
2023/11/30 04:38:15;;;;;;;30.55;16.60;;;1.80;99.90;;;2.14;74.25;99127.72;5007671;28;20608;-83
2023/11/30 04:40:42;;;;;;;31.98;16.48;;;1.80;99.90;;;2.15;74.31;99126.72;4976937;28;20066;-83
2023/11/30 04:43:10;;;;;;;29.77;16.67;;;1.80;99.90;;;2.18;73.95;99126.31;4972439;28;20057;-83
2023/11/30 04:45:41;;;;;;;29.70;17.25;;;1.80;99.90;;;2.17;74.03;99119.44;5008733;28;20059;-83
2023/11/30 04:48:08;;;;;;;31.33;17.02;;;1.80;99.90;;;2.20;74.16;99126.16;5007366;28;20042;-83
2023/11/30 04:50:38;;;;;;;31.95;17.63;;;1.80;99.90;;;2.23;74.55;99123.94;5007263;28;20049;-83
2023/11/30 04:53:07;;;;;;;31.27;17.40;;;1.90;99.90;;;2.24;74.42;99122.13;5002761;28;20076;-83
2023/11/30 04:55:36;;;;;;;34.63;17.85;;;1.90;99.90;;;2.25;74.49;99119.31;4973952;28;20077;-83
2023/11/30 04:58:03;;;;;;;31.83;17.98;;;1.90;99.90;;;2.28;74.51;99110.22;4987156;28;20050;-83
2023/11/30 05:00:31;;;;;;;36.05;18.40;;;1.90;99.90;;;2.27;74.58;99109.41;5004372;28;20514;-83
2023/11/30 05:02:59;;;;;;;30.52;17.55;;;1.90;99.90;;;2.26;74.49;99105.16;4966498;28;20129;-88
2023/11/30 05:05:27;;;;;;;30.20;17.08;;;1.90;99.90;;;2.25;74.67;99100.91;4994459;28;20046;-85
2023/11/30 05:07:54;;;;;;;32.40;17.92;;;1.90;99.90;;;2.26;74.57;99099.09;5005369;28;20092;-86
2023/11/30 05:10:22;;;;;;;33.65;18.70;;;1.90;99.90;;;2.27;74.69;99100.72;4990562;28;20076;-83
2023/11/30 05:12:51;;;;;;;35.17;19.65;;;1.90;99.90;;;2.26;74.67;99107.78;5022977;28;20084;-83
2023/11/30 05:15:18;;;;;;;34.30;18.92;;;1.90;99.90;;;2.24;74.61;99101.88;5004757;28;20061;-84
2023/11/30 05:17:46;;;;;;;30.42;18.17;;;1.90;99.90;;;2.25;74.86;99102.72;4986913;28;20046;-84
2023/11/30 05:20:14;;;;;;;31.98;18.33;;;1.90;99.90;;;2.26;74.88;99106.97;5002366;28;20096;-84
2023/11/30 05:22:41;;;;;;;30.48;17.88;;;1.90;99.90;;;2.28;74.76;99102.31;4989947;28;20049;-83
2023/11/30 05:25:09;;;;;;;31.00;16.52;;;2.00;99.90;;;2.29;74.83;99098.69;5005028;28;20080;-84
2023/11/30 05:27:37;;;;;;;34.65;19.80;;;2.00;99.90;;;2.30;75.09;99100.34;5019701;28;20128;-84
2023/11/30 05:30:08;;;;;;;34.22;19.15;;;1.90;99.90;;;2.32;75.00;99098.31;5001965;28;20077;-85
2023/11/30 05:32:36;;;;;;;35.75;19.13;;;2.00;99.90;;;2.33;75.39;99100.75;4971094;28;20395;-85
2023/11/30 05:35:05;;;;;;;34.72;19.80;;;2.00;99.90;;;2.36;75.21;99093.50;5002654;28;20100;-84
2023/11/30 05:37:33;;;;;;;36.05;19.77;;;2.00;99.90;;;2.37;74.86;99095.09;4997716;28;20130;-85
2023/11/30 05:40:01;;;;;;;34.45;19.63;;;2.00;99.90;;;2.37;74.89;99101.19;4997188;28;20458;-87
2023/11/30 05:42:30;;;;;;;37.28;20.52;;;2.20;99.90;;;2.35;75.15;99097.94;5001476;28;20466;-86
2023/11/30 05:44:59;;;;;;;35.38;20.13;;;2.00;99.90;;;2.35;75.07;99095.31;4973127;28;20104;-87
2023/11/30 05:47:28;;;;;;;38.78;21.17;;;2.00;99.90;;;2.36;75.26;99090.84;5022360;28;20069;-84
2023/11/30 05:49:56;;;;;;;36.50;19.75;;;2.00;99.90;;;2.37;75.11;99089.84;5020611;28;20050;-85
2023/11/30 05:52:24;;;;;;;36.28;20.83;;;2.00;99.90;;;2.38;75.19;99091.47;4986826;28;20505;-85
2023/11/30 05:54:53;;;;;;;35.88;19.70;;;2.00;99.90;;;2.37;75.22;99085.41;5002779;28;20038;-85
2023/11/30 05:57:20;;;;;;;37.60;20.50;;;2.00;99.90;;;2.38;75.32;99092.28;5002441;28;20050;-85
2023/11/30 05:59:48;;;;;;;37.65;20.08;;;2.00;99.90;;;2.36;75.46;99083.78;5002865;28;20033;-85
2023/11/30 06:02:17;;;;;;;34.78;19.05;;;2.00;99.90;;;2.37;75.35;99090.66;5001331;28;20046;-85
2023/11/30 06:04:51;;;;;;;34.83;19.40;;;2.00;99.90;;;2.35;75.23;99084.78;5018461;28;20049;-85
2023/11/30 06:07:20;;;;;;;42.80;25.75;;;2.00;99.90;;;2.30;74.86;99084.56;4994436;28;20046;-85
2023/11/30 06:09:47;;;;;;;67.72;44.95;;;2.00;99.90;;;2.29;75.08;99081.13;4974330;28;20053;-86
2023/11/30 06:12:15;;;;;;;53.90;35.38;;;1.90;99.90;;;2.24;75.34;99078.22;5018167;28;20045;-85
2023/11/30 06:14:43;;;;;;;44.33;27.85;;;2.00;99.90;;;2.27;75.32;99079.66;4984673;28;20062;-86
2023/11/30 06:17:11;;;;;;;48.28;28.30;;;1.90;99.90;;;2.27;75.31;99091.00;5010449;28;20077;-85
2023/11/30 06:19:40;;;;;;;36.20;22.27;;;1.90;99.90;;;2.27;75.48;99087.56;4998834;28;20049;-86
2023/11/30 06:22:09;;;;;;;38.20;21.08;;;1.90;99.90;;;2.23;75.47;99084.50;5016533;28;20049;-86
2023/11/30 06:24:36;;;;;;;34.63;20.83;;;1.90;99.90;;;2.23;75.57;99087.13;5017501;28;20034;-86
2023/11/30 06:27:07;;;;;;;34.70;21.05;;;1.90;99.90;;;2.23;75.29;99088.94;4999067;28;20092;-86
2023/11/30 06:29:34;;;;;;;34.33;19.50;;;1.90;99.90;;;2.22;75.25;99088.13;5006076;28;20049;-86
2023/11/30 06:32:02;;;;;;;34.80;19.98;;;1.90;99.90;;;2.22;75.54;99087.31;5017654;28;20788;-85
2023/11/30 06:34:30;;;;;;;32.50;19.48;;;1.90;99.90;;;2.23;75.65;99086.31;5018100;28;20042;-85
2023/11/30 06:37:01;;;;;;;30.70;18.92;;;1.90;99.90;;;2.23;75.68;99081.03;5001187;28;20042;-86
2023/11/30 06:39:30;;;;;;;33.78;19.90;;;1.90;99.90;;;2.22;75.96;99088.13;5000841;28;20410;-85
2023/11/30 06:41:57;;;;;;;36.53;19.85;;;1.90;99.90;;;2.24;75.66;99085.28;4999471;28;20111;-86
2023/11/30 06:44:25;;;;;;;36.95;20.10;;;1.90;99.90;;;2.27;75.88;99090.19;4988717;28;20050;-85
2023/11/30 06:46:53;;;;;;;34.75;19.30;;;1.90;99.90;;;2.29;75.48;99096.91;5005912;28;20571;-85
2023/11/30 06:49:21;;;;;;;33.25;19.42;;;2.00;99.90;;;2.34;75.71;99096.28;4980703;28;20121;-85
2023/11/30 06:51:48;;;;;;;33.50;18.30;;;2.00;99.90;;;2.31;75.26;99102.75;5000476;28;20514;-85
2023/11/30 06:54:17;;;;;;;34.60;19.83;;;2.00;99.90;;;2.29;75.41;99110.03;5010673;28;20035;-86
2023/11/30 06:56:47;;;;;;;36.25;19.58;;;2.00;99.90;;;2.26;75.54;99099.09;5006611;28;20053;-85
2023/11/30 06:59:14;;;;;;;38.75;20.23;;;1.90;99.90;;;2.28;75.80;99107.59;5000113;28;20417;-85
2023/11/30 07:01:42;;;;;;;32.22;18.25;;;1.90;99.90;;;2.27;75.92;99103.34;4981866;28;20042;-85
2023/11/30 07:04:09;;;;;;;33.88;19.58;;;2.00;99.90;;;2.25;75.99;99108.00;4963751;28;20050;-85
2023/11/30 07:06:37;;;;;;;33.85;18.95;;;1.90;99.90;;;2.24;75.87;99111.59;4997188;28;20399;-85
2023/11/30 07:09:06;;;;;;;37.63;20.50;;;1.90;99.90;;;2.23;76.14;99108.16;4948905;28;20070;-85
2023/11/30 07:11:34;;;;;;;33.47;18.25;;;1.90;99.90;;;2.22;76.34;99106.53;4987662;28;20034;-85
2023/11/30 07:14:03;;;;;;;34.13;19.35;;;1.90;99.90;;;2.22;76.41;99103.09;4977547;28;20480;-85
2023/11/30 07:16:30;;;;;;;34.58;18.98;;;1.90;99.90;;;2.25;76.20;99108.78;4999347;28;20046;-85
2023/11/30 07:18:58;;;;;;;35.67;19.80;;;1.90;99.90;;;2.27;76.13;99114.66;4983114;28;20100;-86
2023/11/30 07:21:26;;;;;;;33.47;18.85;;;2.00;99.90;;;2.26;76.27;99110.41;4999405;28;20042;-86
2023/11/30 07:23:54;;;;;;;35.58;19.40;;;2.00;99.90;;;2.26;76.25;99115.69;4999010;28;20043;-85
2023/11/30 07:26:21;;;;;;;38.90;21.25;;;2.00;99.90;;;2.27;76.33;99104.16;4980880;28;20403;-86
2023/11/30 07:28:49;;;;;;;38.80;20.35;;;2.00;99.90;;;2.30;76.27;99102.97;4980915;28;20046;-85
2023/11/30 07:31:22;;;;;;;38.10;19.80;;;2.00;99.90;;;2.32;76.15;99104.38;5006034;28;20061;-85
2023/11/30 07:33:50;;;;;;;42.03;22.25;;;2.00;99.90;;;2.37;76.16;99105.63;5017621;28;20036;-85
2023/11/30 07:36:18;;;;;;;38.10;21.08;;;2.10;99.90;;;2.38;76.05;99092.28;4986450;28;20056;-85
2023/11/30 07:38:45;;;;;;;38.42;20.63;;;2.10;99.90;;;2.38;76.51;99097.53;4986570;28;20441;-86
2023/11/30 07:41:14;;;;;;;35.80;19.95;;;2.10;99.90;;;2.38;76.16;99100.16;5003216;28;20061;-85
2023/11/30 07:43:40;;;;;;;37.80;20.02;;;2.30;99.90;;;2.36;76.13;99099.56;5021037;28;20037;-85
2023/11/30 07:46:09;;;;;;;37.03;19.17;;;2.10;99.90;;;2.36;76.59;99102.19;5002160;28;20049;-85
2023/11/30 07:48:38;;;;;;;37.05;20.45;;;2.10;99.90;;;2.38;76.44;99105.44;5003851;28;20078;-85
2023/11/30 07:51:07;;;;;;;37.67;19.25;;;2.10;99.90;;;2.36;76.28;99102.19;5021571;28;20046;-85
2023/11/30 07:53:35;;;;;;;35.70;19.98;;;2.10;99.90;;;2.38;76.27;99102.78;4987144;28;20092;-85
2023/11/30 07:56:03;;;;;;;33.90;19.77;;;2.10;99.90;;;2.35;76.37;99102.38;5021154;28;20060;-85
2023/11/30 07:58:35;;;;;;;35.78;19.98;;;2.10;99.90;;;2.38;76.62;99108.06;5021183;28;20045;-85
2023/11/30 08:01:03;;;;;;;36.58;20.25;;;2.10;99.90;;;2.40;76.61;99116.59;5019021;28;20053;-85
2023/11/30 08:03:33;;;;;;;36.30;19.73;;;2.10;99.90;;;2.41;76.25;99107.69;5001971;28;20449;-85
2023/11/30 08:06:02;;;;;;;34.90;19.52;;;2.10;99.90;;;2.41;76.64;99118.22;5004129;28;20050;-85
2023/11/30 08:08:30;;;;;;;37.17;21.25;;;2.20;99.90;;;2.40;76.50;99116.59;5022763;28;20129;-85
2023/11/30 08:10:58;;;;;;;36.60;20.02;;;2.20;99.90;;;2.43;76.66;99118.00;5023596;28;20066;-85
2023/11/30 08:13:26;;;;;;;43.03;21.85;;;2.10;99.90;;;2.46;76.51;99115.81;5023065;28;20049;-85
2023/11/30 08:15:53;;;;;;;38.03;20.98;;;2.20;99.90;;;2.49;76.81;99111.97;4984143;28;20046;-85
2023/11/30 08:18:24;;;;;;;35.65;20.05;;;2.20;99.90;;;2.50;76.48;99116.25;5022565;28;20054;-85
2023/11/30 08:20:54;;;;;;;37.22;19.90;;;2.20;99.90;;;2.49;76.57;99110.19;4989498;28;20057;-85
2023/11/30 08:23:23;;;;;;;41.10;21.70;;;2.20;99.90;;;2.49;76.71;99111.97;5004717;28;20050;-86
2023/11/30 08:25:51;;;;;;;38.45;21.15;;;2.20;99.90;;;2.49;76.51;99115.44;5022325;28;20042;-85
2023/11/30 08:28:18;;;;;;;42.13;20.83;;;2.30;99.90;;;2.52;76.87;99115.03;5001850;28;20498;-85
2023/11/30 08:30:47;;;;;;;44.10;22.23;;;2.30;99.90;;;2.52;76.67;99109.78;5019589;28;20453;-85
2023/11/30 08:33:15;;;;;;;46.35;23.20;;;2.30;99.90;;;2.56;77.04;99110.22;5002808;28;20074;-85
2023/11/30 08:35:42;;;;;;;40.38;21.95;;;2.30;99.90;;;2.57;76.72;99112.66;5002113;28;20046;-85
2023/11/30 08:38:13;;;;;;;46.40;23.35;;;2.30;99.90;;;2.58;76.89;99124.78;5020917;28;20532;-85
2023/11/30 08:40:47;;;;;;;44.63;22.23;;;2.30;99.90;;;2.58;77.07;99116.91;5005830;28;20050;-85
2023/11/30 08:43:15;;;;;;;44.58;23.50;;;2.30;99.90;;;2.62;77.08;99119.16;5022665;28;20050;-85
2023/11/30 08:45:46;;;;;;;43.85;23.35;;;2.40;99.90;;;2.63;76.80;99120.78;5022648;28;20056;-84
2023/11/30 08:48:15;;;;;;;44.33;22.55;;;2.40;99.90;;;2.66;76.81;99117.75;5022715;28;20076;-86
2023/11/30 08:50:42;;;;;;;48.63;24.13;;;2.40;99.90;;;2.67;76.96;99124.66;5004180;28;20053;-85
2023/11/30 08:53:11;;;;;;;44.67;24.27;;;2.20;99.90;;;2.69;77.04;99127.91;5021409;28;20434;-85
2023/11/30 08:55:39;;;;;;;51.80;25.02;;;2.40;99.90;;;2.70;76.79;99111.91;5022562;28;20104;-85
2023/11/30 08:58:28;;;;;;;47.85;25.27;;;2.50;99.90;;;2.75;77.18;99121.88;5114107;27;20380;-84
2023/11/30 09:00:56;;;;;;;50.95;25.70;;;2.50;99.90;;;2.75;76.96;99120.06;5091369;28;20062;-84
2023/11/30 09:03:24;;;;;;;49.00;24.67;;;2.50;99.90;;;2.78;77.35;99117.03;5093154;28;20040;-84
2023/11/30 09:05:52;;;;;;;49.75;25.98;;;2.60;99.90;;;2.81;77.40;99123.72;5090135;28;20090;-84
2023/11/30 09:08:20;;;;;;;56.63;28.33;;;2.60;99.90;;;2.84;77.30;99120.72;5072995;28;20045;-84
2023/11/30 09:10:48;;;;;;;52.50;26.40;;;2.70;99.90;;;2.86;77.41;99115.25;5076723;28;20028;-84
2023/11/30 09:13:16;;;;;;;45.25;24.48;;;2.60;99.90;;;2.86;77.54;99123.94;5084124;28;20059;-85
2023/11/30 09:15:45;;;;;;;54.28;26.17;;;2.60;99.90;;;2.87;77.56;99120.31;5081363;28;20082;-85
2023/11/30 09:18:18;;;;;;;50.35;26.27;;;2.60;99.90;;;2.89;77.68;99118.31;5091809;28;20055;-84
2023/11/30 09:20:47;;;;;;;46.90;24.52;;;2.70;99.90;;;2.88;77.19;99113.22;5083828;28;20400;-84
2023/11/30 09:23:14;;;;;;;48.70;25.63;;;2.60;99.90;;;2.90;77.85;99116.47;5088423;28;20055;-84
2023/11/30 09:25:42;;;;;;;49.08;24.73;;;2.70;99.90;;;2.91;77.43;99110.19;5081223;28;20067;-84
2023/11/30 09:28:10;;;;;;;49.88;24.13;;;2.70;99.90;;;2.91;77.64;99113.66;5082438;28;20117;-84
2023/11/30 09:30:38;;;;;;;45.83;24.27;;;2.70;99.90;;;2.92;77.47;99115.25;5086130;28;20431;-84
2023/11/30 09:33:07;;;;;;;46.45;24.27;;;2.70;99.90;;;2.94;77.52;99107.19;5054136;28;20118;-84
2023/11/30 09:35:36;;;;;;;46.92;25.25;;;2.70;99.90;;;2.98;77.59;99103.16;5069713;28;20055;-86
2023/11/30 09:38:04;;;;;;;47.17;24.23;;;2.70;99.90;;;2.98;77.74;99103.97;5074397;28;20143;-86
2023/11/30 09:40:32;;;;;;;49.97;24.60;;;2.80;99.90;;;3.01;77.65;99103.56;5070482;28;20049;-86
2023/11/30 09:43:00;;;;;;;49.67;23.95;;;2.80;99.90;;;3.03;77.84;99106.81;5085291;28;20036;-85
2023/11/30 09:45:28;;;;;;;50.35;25.55;;;2.80;99.90;;;3.03;77.86;99100.75;5105284;28;20044;-85
2023/11/30 09:47:56;;;;;;;46.55;25.10;;;2.80;99.90;;;3.04;77.62;99105.00;5090352;28;20044;-85
2023/11/30 09:50:25;;;;;;;48.00;25.40;;;2.80;99.90;;;3.06;77.60;99097.72;5073960;28;20045;-86
2023/11/30 09:52:53;;;;;;;53.65;25.73;;;2.80;99.90;;;3.08;77.72;99093.88;5068263;28;20229;-86
2023/11/30 09:55:25;;;;;;;46.88;24.70;;;2.90;99.90;;;3.08;77.83;99095.72;5086568;28;20066;-86
2023/11/30 09:57:52;;;;;;;48.47;26.17;;;2.90;99.90;;;3.09;77.73;99099.97;5085344;28;20086;-86
2023/11/30 10:00:24;;;;;;;49.40;25.52;;;2.90;99.90;;;3.10;77.90;99085.78;5069746;28;20049;-86
2023/11/30 10:02:53;;;;;;;47.17;24.05;;;2.90;99.90;;;3.12;77.98;99098.75;5069462;28;20139;-86
2023/11/30 10:05:21;;;;;;;46.22;24.25;;;2.90;99.90;;;3.12;77.97;99088.19;5073296;28;20513;-86
2023/11/30 10:07:50;;;;;;;44.38;23.85;;;2.90;99.90;;;3.15;78.04;99090.44;5085529;28;20048;-87
2023/11/30 10:10:19;;;;;;;48.50;24.35;;;2.90;99.90;;;3.17;77.93;99085.78;5059281;28;20041;-86
2023/11/30 10:12:47;;;;;;;47.38;24.55;;;2.90;99.90;;;3.16;77.92;99077.06;5056023;28;20041;-85
2023/11/30 10:15:14;;;;;;;43.60;23.20;;;2.90;99.90;;;3.17;78.10;99086.59;5065007;28;20128;-85
2023/11/30 10:17:42;;;;;;;48.45;24.00;;;3.10;99.90;;;3.18;78.08;99079.53;5064409;28;20036;-85
2023/11/30 10:20:12;;;;;;;46.25;23.98;;;3.00;99.90;;;3.17;77.81;99077.88;5038996;28;20613;-85
2023/11/30 10:22:40;;;;;;;44.72;24.00;;;3.00;99.90;;;3.16;77.92;99079.72;5077150;28;20504;-85
2023/11/30 10:25:12;;;;;;;46.58;23.73;;;3.00;99.90;;;3.15;77.88;99072.00;5079722;28;20056;-85